createdAt,value
2023-02-24T00:02:00.221Z,21.85
2023-02-24T00:04:29.587Z,15.20
2023-02-24T00:06:56.437Z,19.25
2023-02-24T00:09:28.786Z,18.75
2023-02-24T00:11:59.892Z,17.27
2023-02-24T00:14:33.265Z,19.08
2023-02-24T00:17:00.670Z,18.77
2023-02-24T00:19:32.727Z,18.88
2023-02-24T00:22:00.950Z,20.40
2023-02-24T00:24:28.291Z,20.98
2023-02-24T00:26:57.147Z,17.83
2023-02-24T00:29:25.073Z,17.92
2023-02-24T00:32:00.363Z,20.55
2023-02-24T00:34:33.561Z,20.02
2023-02-24T00:37:01.376Z,16.95
2023-02-24T00:39:35.227Z,20.23
2023-02-24T00:42:04.985Z,19.63
2023-02-24T00:44:40.233Z,18.92
2023-02-24T00:47:08.749Z,21.55
2023-02-24T00:49:42.426Z,18.88
2023-02-24T00:52:14.886Z,20.15
2023-02-24T00:54:45.901Z,21.27
2023-02-24T00:57:13.215Z,20.45
2023-02-24T00:59:40.595Z,20.15
2023-02-24T01:02:08.114Z,17.75
2023-02-24T01:04:35.422Z,18.67
2023-02-24T01:07:02.298Z,20.83
2023-02-24T01:09:31.992Z,20.17
2023-02-24T01:12:18.275Z,20.00
2023-02-24T01:14:47.862Z,18.23
2023-02-24T01:17:15.968Z,17.38
2023-02-24T01:19:44.309Z,21.20
2023-02-24T01:22:15.082Z,18.25
2023-02-24T01:24:43.915Z,18.45
2023-02-24T01:27:12.727Z,17.98
2023-02-24T01:29:39.900Z,18.38
2023-02-24T01:32:08.495Z,20.08
2023-02-24T01:34:35.350Z,16.45
2023-02-24T01:37:02.402Z,18.25
2023-02-24T01:39:29.096Z,22.70
2023-02-24T01:41:56.110Z,21.25
2023-02-24T01:44:24.070Z,18.85
2023-02-24T01:46:53.005Z,17.70
2023-02-24T01:49:37.909Z,21.70
2023-02-24T01:52:20.106Z,18.42
2023-02-24T01:54:55.108Z,21.48
2023-02-24T01:57:24.215Z,16.95
2023-02-24T01:59:54.035Z,19.00
2023-02-24T02:02:23.481Z,17.88
2023-02-24T02:04:58.854Z,21.77
2023-02-24T02:07:28.627Z,19.40
2023-02-24T02:10:00.344Z,17.92
2023-02-24T02:12:29.036Z,19.42
2023-02-24T02:14:59.574Z,18.40
2023-02-24T02:17:43.845Z,17.88
2023-02-24T02:20:38.573Z,20.15
2023-02-24T02:23:40.972Z,21.13
2023-02-24T02:26:21.196Z,20.27
2023-02-24T02:29:02.880Z,21.65
2023-02-24T02:31:55.453Z,16.33
2023-02-24T02:34:41.012Z,17.05
2023-02-24T02:37:20.198Z,17.90
2023-02-24T02:39:49.794Z,19.80
2023-02-24T02:42:30.189Z,14.93
2023-02-24T02:44:59.939Z,19.52
2023-02-24T02:47:35.705Z,15.48
2023-02-24T02:50:24.154Z,21.83
2023-02-24T02:53:24.629Z,18.38
2023-02-24T02:56:09.717Z,20.02
2023-02-24T02:58:40.572Z,18.30
2023-02-24T03:01:09.629Z,17.08
2023-02-24T03:03:41.121Z,19.67
2023-02-24T03:06:22.388Z,18.42
2023-02-24T03:08:59.404Z,19.02
2023-02-24T03:11:27.012Z,17.83
2023-02-24T03:13:57.613Z,22.13
2023-02-24T03:16:27.245Z,21.60
2023-02-24T03:18:59.881Z,19.98
2023-02-24T03:21:51.924Z,17.75
2023-02-24T03:24:19.164Z,18.80
2023-02-24T03:27:20.074Z,17.30
2023-02-24T03:29:58.473Z,17.75
2023-02-24T03:32:33.518Z,25.88
2023-02-24T03:35:19.655Z,18.10
2023-02-24T03:37:50.043Z,21.83
2023-02-24T03:40:18.281Z,18.65
2023-02-24T03:42:52.239Z,19.33
2023-02-24T03:45:22.570Z,17.23
2023-02-24T03:47:51.160Z,20.23
2023-02-24T03:50:22.000Z,20.55
2023-02-24T03:53:20.729Z,19.90
2023-02-24T03:56:11.000Z,21.00
2023-02-24T03:59:04.885Z,15.07
2023-02-24T04:01:46.495Z,17.52
2023-02-24T04:04:23.885Z,18.33
2023-02-24T04:07:26.464Z,18.63
2023-02-24T04:10:16.846Z,19.75
2023-02-24T04:13:02.170Z,19.33
2023-02-24T04:15:38.322Z,18.92
2023-02-24T04:18:18.731Z,17.13
2023-02-24T04:20:51.152Z,18.48
2023-02-24T04:23:21.864Z,20.23
2023-02-24T04:25:52.553Z,16.60
2023-02-24T04:28:22.641Z,16.75
2023-02-24T04:30:57.629Z,16.10
2023-02-24T04:33:24.592Z,17.90
2023-02-24T04:35:51.395Z,22.08
2023-02-24T04:38:18.754Z,19.23
2023-02-24T04:40:45.702Z,18.70
2023-02-24T04:43:13.109Z,17.13
2023-02-24T04:45:40.396Z,19.65
2023-02-24T04:48:12.998Z,16.85
2023-02-24T04:50:42.307Z,20.05
2023-02-24T04:53:11.803Z,19.33
2023-02-24T04:55:45.425Z,15.85
2023-02-24T04:58:19.138Z,18.77
2023-02-24T05:00:48.971Z,17.40
2023-02-24T05:03:17.294Z,23.65
2023-02-24T05:06:00.359Z,19.27
2023-02-24T05:08:29.003Z,15.13
2023-02-24T05:11:00.872Z,18.35
2023-02-24T05:13:31.774Z,16.90
2023-02-24T05:16:04.254Z,17.27
2023-02-24T05:18:36.982Z,16.52
2023-02-24T05:21:31.764Z,14.48
2023-02-24T05:23:59.513Z,17.83
2023-02-24T05:26:27.071Z,19.85
2023-02-24T05:28:56.683Z,18.55
2023-02-24T05:31:27.172Z,19.70
2023-02-24T05:34:01.464Z,19.35
2023-02-24T05:36:35.125Z,19.30
2023-02-24T05:39:12.080Z,17.13
2023-02-24T05:41:41.848Z,20.00
2023-02-24T05:44:12.670Z,18.08
2023-02-24T05:46:42.395Z,16.52
2023-02-24T05:49:15.577Z,20.60
2023-02-24T05:51:54.449Z,19.65
2023-02-24T05:54:29.873Z,19.35
2023-02-24T05:57:02.346Z,16.33
2023-02-24T05:59:34.906Z,18.65
2023-02-24T06:02:09.177Z,20.33
2023-02-24T06:04:41.122Z,20.17
2023-02-24T06:07:20.012Z,16.02
2023-02-24T06:09:50.426Z,17.92
2023-02-24T06:12:18.352Z,21.48
2023-02-24T06:14:45.228Z,22.83
2023-02-24T06:17:12.154Z,18.67
2023-02-24T06:19:41.238Z,16.83
2023-02-24T06:22:11.758Z,21.05
2023-02-24T06:24:39.381Z,18.42
2023-02-24T06:27:10.463Z,18.23
2023-02-24T06:29:37.904Z,19.50
2023-02-24T06:32:11.303Z,18.05
2023-02-24T06:34:39.102Z,21.23
2023-02-24T06:37:07.407Z,22.35
2023-02-24T06:39:36.615Z,21.60
2023-02-24T06:42:05.131Z,18.88
2023-02-24T06:44:32.868Z,18.17
2023-02-24T06:47:00.131Z,21.88
2023-02-24T06:49:27.602Z,20.25
2023-02-24T06:51:55.165Z,21.17
2023-02-24T06:54:22.829Z,19.90
2023-02-24T06:56:50.026Z,21.15
2023-02-24T06:59:21.737Z,21.15
2023-02-24T07:01:49.422Z,21.20
2023-02-24T07:04:17.896Z,21.85
2023-02-24T07:06:49.355Z,21.45
2023-02-24T07:09:18.768Z,20.83
2023-02-24T07:11:48.448Z,21.27
2023-02-24T07:14:15.433Z,22.13
2023-02-24T07:16:45.520Z,20.92
2023-02-24T07:19:15.914Z,20.95
2023-02-24T07:21:46.736Z,22.73
2023-02-24T07:24:20.324Z,23.85
2023-02-24T07:26:51.814Z,21.83
2023-02-24T07:29:19.156Z,23.55
2023-02-24T07:31:46.096Z,21.55
2023-02-24T07:34:15.072Z,22.92
2023-02-24T07:36:49.327Z,22.95
2023-02-24T07:39:17.154Z,22.20
2023-02-24T07:41:49.752Z,21.80
2023-02-24T07:44:18.934Z,22.95
2023-02-24T07:46:48.183Z,22.73
2023-02-24T07:49:19.810Z,19.98
2023-02-24T07:54:21.516Z,21.65
2023-02-24T07:56:56.598Z,23.02
2023-02-24T07:59:25.935Z,23.35
2023-02-24T08:01:55.777Z,21.50
2023-02-24T08:04:26.928Z,22.50
2023-02-24T08:06:59.120Z,21.75
2023-02-24T08:09:45.465Z,21.58
2023-02-24T08:12:18.529Z,24.02
2023-02-24T08:14:50.901Z,22.65
2023-02-24T08:17:20.323Z,21.10
2023-02-24T08:19:49.192Z,23.15
2023-02-24T08:22:19.848Z,21.20
2023-02-24T08:24:50.239Z,24.92
2023-02-24T08:27:20.269Z,23.55
2023-02-24T08:29:59.929Z,22.75
2023-02-24T08:32:52.596Z,24.85
2023-02-24T08:35:23.027Z,21.55
2023-02-24T08:37:54.216Z,23.27
2023-02-24T08:40:32.970Z,21.85
2023-02-24T08:43:19.299Z,22.48
2023-02-24T08:45:59.412Z,23.02
2023-02-24T08:48:37.857Z,20.52
2023-02-24T08:51:04.701Z,24.15
2023-02-24T08:53:31.624Z,23.95
2023-02-24T08:56:00.331Z,24.02
2023-02-24T08:58:27.302Z,26.00
2023-02-24T09:00:57.010Z,25.05
2023-02-24T09:03:29.195Z,25.55
2023-02-24T09:06:05.078Z,24.98
2023-02-24T09:08:40.441Z,20.95
2023-02-24T09:11:25.255Z,23.63
2023-02-24T09:13:51.950Z,27.48
2023-02-24T09:16:20.608Z,25.02
2023-02-24T09:19:07.447Z,24.00
2023-02-24T09:21:49.184Z,26.77
2023-02-24T09:24:27.050Z,25.05
2023-02-24T09:27:00.245Z,23.33
2023-02-24T09:29:49.280Z,22.35
2023-02-24T09:32:16.560Z,25.80
2023-02-24T09:34:44.175Z,27.35
2023-02-24T09:37:27.277Z,26.90
2023-02-24T09:39:54.686Z,22.10
2023-02-24T09:42:46.632Z,26.60
2023-02-24T09:45:33.062Z,24.85
2023-02-24T09:48:11.011Z,23.45
2023-02-24T09:51:03.089Z,25.92
2023-02-24T09:53:52.641Z,26.70
2023-02-24T09:56:31.143Z,25.73
2023-02-24T09:59:12.724Z,24.23
2023-02-24T10:02:12.172Z,23.35
2023-02-24T10:04:49.315Z,26.10
2023-02-24T10:07:24.409Z,26.20
2023-02-24T10:10:11.201Z,26.52
2023-02-24T10:12:40.367Z,26.33
2023-02-24T10:15:21.172Z,30.52
2023-02-24T10:17:58.343Z,26.38
2023-02-24T10:20:40.572Z,26.77
2023-02-24T10:23:32.972Z,28.90
2023-02-24T10:26:09.246Z,28.40
2023-02-24T10:29:29.530Z,24.58
2023-02-24T10:32:17.090Z,26.75
2023-02-24T10:34:44.702Z,27.25
2023-02-24T10:37:27.563Z,27.38
2023-02-24T10:40:00.358Z,27.75
2023-02-24T10:42:32.089Z,27.08
2023-02-24T10:47:58.576Z,24.17
2023-02-24T10:50:55.457Z,27.63
2023-02-24T10:53:28.728Z,28.75
2023-02-24T10:56:17.531Z,27.05
2023-02-24T10:58:53.563Z,27.55
2023-02-24T11:01:43.817Z,24.83
2023-02-24T11:04:28.663Z,25.60
2023-02-24T11:07:09.932Z,23.23
2023-02-24T11:09:52.169Z,24.05
2023-02-24T11:12:45.276Z,26.08
2023-02-24T11:15:40.225Z,25.45
2023-02-24T11:18:08.796Z,26.55
2023-02-24T11:20:49.776Z,28.55
2023-02-24T11:23:22.661Z,26.98
2023-02-24T11:25:58.973Z,25.88
2023-02-24T11:28:28.622Z,25.05
2023-02-24T11:31:28.742Z,25.58
2023-02-24T11:34:07.856Z,29.75
2023-02-24T11:36:43.849Z,26.08
2023-02-24T11:39:45.640Z,26.92
2023-02-24T11:42:16.785Z,28.48
2023-02-24T11:45:12.247Z,29.17
2023-02-24T11:47:45.296Z,26.80
2023-02-24T11:50:30.917Z,25.48
2023-02-24T11:53:03.600Z,25.33
2023-02-24T11:55:46.930Z,28.58
2023-02-24T11:58:46.557Z,27.20
2023-02-24T12:01:51.511Z,26.90
2023-02-24T12:04:37.842Z,26.95
2023-02-24T12:07:12.999Z,29.25
2023-02-24T12:09:58.298Z,26.15
2023-02-24T12:12:57.233Z,28.55
2023-02-24T12:15:46.833Z,27.33
2023-02-24T12:18:17.931Z,28.33
2023-02-24T12:20:51.106Z,27.95
2023-02-24T12:23:31.276Z,23.55
2023-02-24T12:26:42.752Z,25.35
2023-02-24T12:29:21.265Z,25.35
2023-02-24T12:32:16.937Z,26.10
2023-02-24T12:34:50.405Z,33.17
2023-02-24T12:37:42.581Z,28.33
2023-02-24T12:40:28.013Z,28.42
2023-02-24T12:43:05.383Z,26.60
2023-02-24T12:46:17.241Z,24.88
2023-02-24T12:49:19.172Z,28.80
2023-02-24T12:52:33.538Z,27.77
2023-02-24T12:55:03.122Z,25.85
2023-02-24T12:58:04.164Z,27.52
2023-02-24T13:00:50.658Z,27.92
2023-02-24T13:03:47.807Z,25.88
2023-02-24T13:06:25.517Z,27.45
2023-02-24T13:08:59.663Z,29.08
2023-02-24T13:11:37.569Z,26.48
2023-02-24T13:14:27.501Z,28.25
2023-02-24T13:17:09.341Z,27.02
2023-02-24T13:19:36.941Z,30.30
2023-02-24T13:22:08.800Z,25.80
2023-02-24T13:27:21.536Z,30.67
2023-02-24T13:29:51.108Z,28.00
2023-02-24T13:32:32.106Z,29.63
2023-02-24T13:35:03.772Z,26.48
2023-02-24T13:37:36.791Z,25.70
2023-02-24T13:40:16.591Z,27.02
2023-02-24T13:43:01.379Z,28.75
2023-02-24T13:45:31.624Z,27.10
2023-02-24T13:48:07.248Z,26.90
2023-02-24T13:51:05.139Z,25.63
2023-02-24T13:53:31.907Z,28.50
2023-02-24T13:56:23.196Z,25.88
2023-02-24T13:59:19.431Z,26.17
2023-02-24T14:01:50.173Z,28.58
2023-02-24T14:04:35.144Z,26.33
2023-02-24T14:07:08.963Z,25.88
2023-02-24T14:09:48.785Z,28.75
2023-02-24T14:12:36.021Z,25.85
2023-02-24T14:15:04.422Z,26.17
2023-02-24T14:17:37.715Z,27.13
2023-02-24T14:20:06.693Z,28.92
2023-02-24T14:22:34.746Z,28.65
2023-02-24T14:25:03.388Z,29.48
2023-02-24T14:27:31.126Z,28.95
2023-02-24T14:29:58.044Z,25.60
2023-02-24T14:32:27.520Z,26.05
2023-02-24T14:34:58.347Z,28.60
2023-02-24T14:37:29.058Z,26.77
2023-02-24T14:39:58.688Z,27.58
2023-02-24T14:42:27.099Z,28.90
2023-02-24T14:44:56.769Z,27.08
2023-02-24T14:47:26.437Z,28.27
2023-02-24T14:49:59.802Z,28.02
2023-02-24T14:52:44.639Z,26.92
2023-02-24T14:55:12.999Z,29.67
2023-02-24T14:57:48.458Z,28.27
2023-02-24T15:00:23.932Z,26.20
2023-02-24T15:02:57.025Z,28.88
2023-02-24T15:05:24.283Z,27.33
2023-02-24T15:07:51.930Z,30.00
2023-02-24T15:10:29.004Z,24.73
2023-02-24T15:13:12.219Z,26.23
2023-02-24T15:15:39.532Z,27.15
2023-02-24T15:18:20.679Z,27.20
2023-02-24T15:20:47.487Z,30.38
2023-02-24T15:23:29.164Z,31.55
2023-02-24T15:25:56.039Z,30.52
2023-02-24T15:28:33.300Z,28.83
2023-02-24T15:31:11.075Z,29.13
2023-02-24T15:33:41.626Z,28.88
2023-02-24T15:36:17.956Z,33.38
2023-02-24T15:38:46.285Z,33.55
2023-02-24T15:41:14.290Z,30.95
2023-02-24T15:43:45.749Z,27.98
2023-02-24T15:46:37.161Z,26.65
2023-02-24T15:49:05.563Z,33.95
2023-02-24T15:51:47.661Z,30.63
2023-02-24T15:54:20.574Z,30.85
2023-02-24T15:56:48.799Z,27.38
2023-02-24T15:59:18.286Z,29.52
2023-02-24T16:01:45.174Z,29.40
2023-02-24T16:04:12.065Z,30.73
2023-02-24T16:06:43.680Z,30.95
2023-02-24T16:09:15.373Z,28.65
2023-02-24T16:11:45.960Z,28.45
2023-02-24T16:14:16.657Z,28.98
2023-02-24T16:16:44.341Z,29.17
2023-02-24T16:19:14.373Z,31.70
2023-02-24T16:21:41.301Z,31.48
2023-02-24T16:24:08.321Z,30.70
2023-02-24T16:26:40.002Z,30.02
2023-02-24T16:29:11.702Z,28.02
2023-02-24T16:31:39.629Z,31.70
2023-02-24T16:34:07.621Z,28.98
2023-02-24T16:36:35.766Z,30.80
2023-02-24T16:39:04.849Z,30.23
2023-02-24T16:41:31.693Z,29.80
2023-02-24T16:43:58.452Z,27.00
2023-02-24T16:46:28.396Z,28.60
2023-02-24T16:48:55.286Z,33.20
2023-02-24T16:51:22.439Z,29.17
2023-02-24T16:53:49.177Z,32.93
2023-02-24T16:56:16.240Z,29.85
2023-02-24T16:58:43.094Z,27.75
2023-02-24T17:01:16.394Z,28.35
2023-02-24T17:03:46.093Z,30.67
2023-02-24T17:06:12.957Z,30.17
2023-02-24T17:08:41.642Z,29.23
2023-02-24T17:11:13.463Z,30.90
2023-02-24T17:13:40.552Z,34.38
2023-02-24T17:16:07.910Z,28.98
2023-02-24T17:18:34.828Z,32.78
2023-02-24T17:21:02.469Z,27.83
2023-02-24T17:23:29.305Z,31.33
2023-02-24T17:25:59.081Z,28.63
2023-02-24T17:28:26.846Z,31.15
2023-02-24T17:30:53.911Z,29.73
2023-02-24T17:33:20.872Z,33.50
2023-02-24T17:35:48.534Z,29.17
2023-02-24T17:38:17.358Z,29.42
2023-02-24T17:40:45.786Z,31.33
2023-02-24T17:43:13.088Z,29.77
2023-02-24T17:45:45.090Z,30.65
2023-02-24T17:48:13.398Z,31.10
2023-02-24T17:50:47.314Z,32.25
2023-02-24T17:53:14.961Z,32.75
2023-02-24T17:55:49.913Z,30.98
2023-02-24T17:58:26.693Z,28.95
2023-02-24T18:00:53.519Z,31.75
2023-02-24T18:03:20.771Z,31.48
2023-02-24T18:05:47.691Z,29.38
2023-02-24T18:08:14.666Z,33.17
2023-02-24T18:10:41.457Z,29.83
2023-02-24T18:13:08.187Z,29.90
2023-02-24T18:15:35.058Z,30.67
2023-02-24T18:18:01.808Z,33.50
2023-02-24T18:20:29.745Z,29.48
2023-02-24T18:22:57.054Z,29.33
2023-02-24T18:25:23.763Z,26.90
2023-02-24T18:27:50.550Z,28.67
2023-02-24T18:30:18.643Z,29.70
2023-02-24T18:32:45.873Z,29.90
2023-02-24T18:35:13.390Z,30.88
2023-02-24T18:37:40.193Z,28.45
2023-02-24T18:40:07.507Z,31.35
2023-02-24T18:42:34.246Z,29.02
2023-02-24T18:45:01.060Z,31.38
2023-02-24T18:47:28.369Z,29.08
2023-02-24T18:49:55.159Z,31.13
2023-02-24T18:52:22.054Z,29.50
2023-02-24T18:54:49.692Z,27.92
2023-02-24T18:57:16.501Z,29.90
2023-02-24T18:59:44.330Z,29.33
2023-02-24T19:02:11.476Z,32.47
2023-02-24T19:04:38.283Z,31.38
2023-02-24T19:07:05.410Z,34.53
2023-02-24T19:09:32.192Z,29.23
2023-02-24T19:11:58.940Z,30.25
2023-02-24T19:14:25.964Z,29.02
2023-02-24T19:16:52.866Z,32.53
2023-02-24T19:19:19.812Z,29.73
2023-02-24T19:21:48.278Z,31.35
2023-02-24T19:24:16.493Z,31.80
2023-02-24T19:26:45.767Z,33.00
2023-02-24T19:29:13.157Z,30.10
2023-02-24T19:31:40.562Z,31.88
2023-02-24T19:34:11.698Z,31.00
2023-02-24T19:36:38.709Z,30.27
2023-02-24T19:39:08.873Z,29.35
2023-02-24T19:41:36.899Z,33.17
2023-02-24T19:44:03.787Z,31.23
2023-02-24T19:46:34.303Z,32.78
2023-02-24T19:49:01.426Z,27.63
2023-02-24T19:51:28.451Z,31.60
2023-02-24T19:53:57.207Z,30.02
2023-02-24T19:56:25.957Z,31.73
2023-02-24T19:58:54.894Z,31.98
2023-02-24T20:01:23.003Z,29.58
2023-02-24T20:03:50.448Z,33.50
2023-02-24T20:06:39.028Z,31.73
2023-02-24T20:09:08.253Z,29.05
2023-02-24T20:11:37.080Z,32.42
2023-02-24T20:14:04.492Z,34.75
2023-02-24T20:16:34.936Z,30.90
2023-02-24T20:19:01.862Z,29.67
2023-02-24T20:21:29.201Z,31.33
2023-02-24T20:24:01.958Z,29.83
2023-02-24T20:26:29.861Z,31.30
2023-02-24T20:28:57.412Z,30.90
2023-02-24T20:31:24.406Z,30.63
2023-02-24T20:33:51.574Z,30.10
2023-02-24T20:36:21.950Z,29.38
2023-02-24T20:38:49.154Z,33.35
2023-02-24T20:41:16.866Z,31.75
2023-02-24T20:43:43.684Z,32.05
2023-02-24T20:46:27.287Z,31.05
2023-02-24T20:49:17.447Z,31.48
2023-02-24T20:51:44.540Z,32.97
2023-02-24T20:54:12.511Z,32.85
2023-02-24T20:56:41.379Z,34.13
2023-02-24T20:59:17.391Z,28.20
2023-02-24T21:01:47.355Z,33.75
2023-02-24T21:04:16.226Z,30.92
2023-02-24T21:06:43.082Z,36.00
2023-02-24T21:09:12.010Z,32.83
2023-02-24T21:11:39.148Z,33.20
2023-02-24T21:14:07.067Z,33.42
2023-02-24T21:16:37.220Z,33.33
2023-02-24T21:19:04.141Z,29.67
2023-02-24T21:21:30.948Z,32.72
2023-02-24T21:23:57.743Z,31.95
2023-02-24T21:26:26.989Z,30.92
2023-02-24T21:28:57.440Z,28.85
2023-02-24T21:31:24.867Z,31.77
2023-02-24T21:33:52.887Z,34.15
2023-02-24T21:36:21.582Z,31.15
2023-02-24T21:38:49.049Z,32.38
2023-02-24T21:41:16.161Z,31.10
2023-02-24T21:43:44.404Z,35.05
2023-02-24T21:46:13.567Z,34.15
2023-02-24T21:48:41.785Z,31.10
2023-02-24T21:51:11.147Z,33.97
2023-02-24T21:53:39.659Z,33.05
2023-02-24T21:56:18.669Z,31.10
2023-02-24T21:58:48.353Z,31.52
2023-02-24T22:01:24.377Z,35.45
2023-02-24T22:03:55.463Z,29.65
2023-02-24T22:06:22.783Z,31.85
2023-02-24T22:08:49.841Z,33.58
2023-02-24T22:11:18.097Z,35.00
2023-02-24T22:13:46.707Z,33.33
2023-02-24T22:16:18.192Z,35.38
2023-02-24T22:18:46.505Z,31.92
2023-02-24T22:21:17.791Z,30.52
2023-02-24T22:23:46.432Z,31.20
2023-02-24T22:26:14.807Z,34.90
2023-02-24T22:28:42.979Z,33.60
2023-02-24T22:31:12.112Z,34.33
2023-02-24T22:33:41.221Z,38.42
2023-02-24T22:36:10.951Z,30.63
2023-02-24T22:38:39.125Z,33.17
2023-02-24T22:41:10.863Z,32.13
2023-02-24T22:43:37.684Z,32.85
2023-02-24T22:46:10.808Z,33.40
2023-02-24T22:48:38.029Z,31.70
2023-02-24T22:51:07.465Z,33.70
2023-02-24T22:53:38.139Z,36.72
2023-02-24T22:56:06.312Z,31.42
2023-02-24T22:58:33.388Z,33.58
2023-02-24T23:01:00.360Z,35.40
2023-02-24T23:03:31.020Z,30.60
2023-02-24T23:05:59.438Z,34.83
2023-02-24T23:08:31.676Z,35.45
2023-02-24T23:11:07.817Z,33.25
2023-02-24T23:13:38.288Z,30.65
2023-02-24T23:16:07.648Z,34.00
2023-02-24T23:18:36.892Z,33.03
2023-02-24T23:21:08.096Z,36.85
2023-02-24T23:23:35.855Z,31.92
2023-02-24T23:26:03.709Z,31.17
2023-02-24T23:28:30.712Z,33.55
2023-02-24T23:30:57.796Z,32.78
2023-02-24T23:33:24.868Z,33.50
2023-02-24T23:35:51.658Z,32.05
2023-02-24T23:38:18.382Z,36.42
2023-02-24T23:40:50.566Z,32.53
2023-02-24T23:43:18.440Z,33.47
2023-02-24T23:45:45.532Z,33.75
2023-02-24T23:48:14.338Z,34.85
2023-02-24T23:50:42.909Z,31.17
2023-02-24T23:53:09.942Z,33.38
2023-02-24T23:55:40.129Z,35.42
2023-02-24T23:58:07.585Z,31.83
